Moe, South Dakota
Current Conditions -  °F | °C
As of 1:55 AM on Saturday 20 Dec 2014 (Local Time) from KORC Reporting Station
Haze Haze  
Wind Chill: -6°   Ceiling: 200
Heat Index: -1°   Visibility: 1mi
Dew Point: -1°   Wind: 12mph
Humidity: 100%   Direction: 160°SSE
Pressure: 30.07"   Gusts: NA
Location:  43.1282°N, 96.5674°W
Report Text: KORC 200755Z AUTO 16010KT 1SM BR OVC002 M01/M01 A3007 RMK AO2
Loading
Personal Weather Stations






























Interactive Weather Map New forecast layout! Learn more

10-Day Weather Forecast

Advertisements
Track Severe Weather on mobile